Portada
METAR-TAF:

METAR-TAF

Aeroports :

Nassau, Bahames

latitud: 25-03N, longitud: 077-28W, altitud: 3 m

Observació

L'informe es va fer fa 23 minuts, a les 20:00 UTC
Vent 10 kt del Est, variant entre Nord-Est i Est/Sud-Est
Temperatura 24°C
Humitat 89%
Pressió 1019 hPa
Visibilitat 10 km o més
Cel ennuvolat a una alçada de 2000 ft
Cel ennuvolat a una alçada de 4000 ft
xàfecs de pluja

METAR: MYNN 242000Z 08010KT 050V110 9999 -SHRA BKN020 BKN040 24/22 A3008

Hora: 15:23 (20:23 UTC)

Pronòstic

L'informe es va fer fa 3 hores i 53 minuts, a les 16:30 UTC
Pronòstic vàlid del 24 a les 18 UTC al 25 a les 18 UTC
Vent 15 kt del Est/Nord-Est amb ràfegues de 25 kt
Visibilitat 10 km o més
Núvols disperses a una alçada de 2000 ft
Temporalment
l' 24 a les 22 UTC al 25 a les 07 UTC
Visibilitat: 9000 m
Núvols disperses a una alçada de 1800 ft
Cel ennuvolat a una alçada de 3000 ft
xàfecs de pluja

TAF: MYNN 241630Z 2418/2518 06015G25KT 9999 SCT020 TEMPO 2422/2507 9000 SHRA SCT018 BKN030

Observacions i pronòstics meteorològics de més de 4000 aeroports (METAR i TAF).

Les estacions disponibles són els punts grocs i vermells al mapa.

Posi el ratolí al punt desitjat per veure el nom de l'estació.

Feu clic per veure les observacions i els pronòstics meteorològics.

Per canviar el mapa: feu clic els botons verds amb una creu de color negre per apropar; al botó verd amb un guió per allunyar la imatge; o en les fletxes verdes per a mapes adjacents.


METAR-TAF: